sensor_id;sensor_type;location;lat;lon;timestamp;P1;durP1;ratioP1;P2;durP2;ratioP2
35418;SDS011;21525;41.240;16.500;2022-10-15T00:00:29;48.67;;;35.22;;
35418;SDS011;21525;41.240;16.500;2022-10-15T00:02:55;45.53;;;35.03;;
35418;SDS011;21525;41.240;16.500;2022-10-15T00:05:21;42.83;;;33.35;;
35418;SDS011;21525;41.240;16.500;2022-10-15T00:07:47;48.67;;;36.20;;
35418;SDS011;21525;41.240;16.500;2022-10-15T00:10:13;46.50;;;35.05;;
35418;SDS011;21525;41.240;16.500;2022-10-15T00:12:40;52.78;;;35.47;;
35418;SDS011;21525;41.240;16.500;2022-10-15T00:15:06;44.70;;;33.83;;
35418;SDS011;21525;41.240;16.500;2022-10-15T00:17:33;51.00;;;35.72;;
35418;SDS011;21525;41.240;16.500;2022-10-15T00:20:00;46.25;;;35.03;;
35418;SDS011;21525;41.240;16.500;2022-10-15T00:22:26;44.78;;;35.25;;
35418;SDS011;21525;41.240;16.500;2022-10-15T00:24:52;45.15;;;35.13;;
35418;SDS011;21525;41.240;16.500;2022-10-15T00:27:17;49.83;;;35.30;;
35418;SDS011;21525;41.240;16.500;2022-10-15T00:29:43;48.08;;;34.85;;
35418;SDS011;21525;41.240;16.500;2022-10-15T00:32:09;47.25;;;35.33;;
35418;SDS011;21525;41.240;16.500;2022-10-15T00:34:37;45.85;;;35.80;;
35418;SDS011;21525;41.240;16.500;2022-10-15T00:37:04;46.40;;;33.28;;
35418;SDS011;21525;41.240;16.500;2022-10-15T00:39:31;45.33;;;35.97;;
35418;SDS011;21525;41.240;16.500;2022-10-15T00:41:57;47.25;;;34.03;;
35418;SDS011;21525;41.240;16.500;2022-10-15T00:46:56;41.17;;;32.42;;
35418;SDS011;21525;41.240;16.500;2022-10-15T00:49:32;45.65;;;34.78;;
35418;SDS011;21525;41.240;16.500;2022-10-15T00:54:28;45.97;;;33.95;;
35418;SDS011;21525;41.240;16.500;2022-10-15T00:56:58;47.03;;;35.13;;
35418;SDS011;21525;41.240;16.500;2022-10-15T00:59:25;51.67;;;36.33;;
35418;SDS011;21525;41.240;16.500;2022-10-15T01:01:53;42.22;;;32.60;;
35418;SDS011;21525;41.240;16.500;2022-10-15T01:04:20;43.13;;;32.90;;
35418;SDS011;21525;41.240;16.500;2022-10-15T01:06:47;44.80;;;32.45;;
35418;SDS011;21525;41.240;16.500;2022-10-15T01:09:13;43.67;;;32.90;;
35418;SDS011;21525;41.240;16.500;2022-10-15T01:11:46;41.53;;;32.55;;
35418;SDS011;21525;41.240;16.500;2022-10-15T01:20:42;44.88;;;33.45;;
35418;SDS011;21525;41.240;16.500;2022-10-15T01:23:04;41.35;;;33.30;;
35418;SDS011;21525;41.240;16.500;2022-10-15T01:31:42;43.08;;;32.40;;
35418;SDS011;21525;41.240;16.500;2022-10-15T01:36:42;43.83;;;33.33;;
35418;SDS011;21525;41.240;16.500;2022-10-15T01:39:20;47.00;;;35.80;;
35418;SDS011;21525;41.240;16.500;2022-10-15T01:41:51;46.03;;;34.00;;
35418;SDS011;21525;41.240;16.500;2022-10-15T01:44:33;45.03;;;34.03;;
35418;SDS011;21525;41.240;16.500;2022-10-15T01:47:45;43.53;;;32.47;;
35418;SDS011;21525;41.240;16.500;2022-10-15T01:50:16;45.80;;;33.15;;
35418;SDS011;21525;41.240;16.500;2022-10-15T01:52:46;40.08;;;32.42;;
35418;SDS011;21525;41.240;16.500;2022-10-15T01:55:16;42.08;;;32.92;;
35418;SDS011;21525;41.240;16.500;2022-10-15T01:57:44;41.35;;;33.70;;
35418;SDS011;21525;41.240;16.500;2022-10-15T02:00:12;41.75;;;33.17;;
35418;SDS011;21525;41.240;16.500;2022-10-15T02:02:39;49.28;;;38.45;;
35418;SDS011;21525;41.240;16.500;2022-10-15T02:05:18;50.42;;;40.33;;
35418;SDS011;21525;41.240;16.500;2022-10-15T02:11:08;57.15;;;41.78;;
35418;SDS011;21525;41.240;16.500;2022-10-15T02:13:51;46.38;;;36.95;;
35418;SDS011;21525;41.240;16.500;2022-10-15T02:21:52;53.72;;;39.70;;
35418;SDS011;21525;41.240;16.500;2022-10-15T02:24:27;50.63;;;37.53;;
35418;SDS011;21525;41.240;16.500;2022-10-15T02:27:02;45.60;;;34.58;;
35418;SDS011;21525;41.240;16.500;2022-10-15T02:29:31;46.05;;;36.10;;
35418;SDS011;21525;41.240;16.500;2022-10-15T02:31:59;47.25;;;36.28;;
35418;SDS011;21525;41.240;16.500;2022-10-15T02:34:27;42.25;;;34.88;;
35418;SDS011;21525;41.240;16.500;2022-10-15T02:36:57;45.85;;;37.15;;
35418;SDS011;21525;41.240;16.500;2022-10-15T02:39:25;42.47;;;32.83;;
35418;SDS011;21525;41.240;16.500;2022-10-15T02:41:52;43.85;;;34.88;;
35418;SDS011;21525;41.240;16.500;2022-10-15T02:44:18;47.38;;;38.65;;
35418;SDS011;21525;41.240;16.500;2022-10-15T02:46:44;58.65;;;46.60;;
35418;SDS011;21525;41.240;16.500;2022-10-15T02:49:12;47.92;;;38.38;;
35418;SDS011;21525;41.240;16.500;2022-10-15T02:51:38;74.30;;;56.88;;
35418;SDS011;21525;41.240;16.500;2022-10-15T02:54:04;51.05;;;39.28;;
35418;SDS011;21525;41.240;16.500;2022-10-15T02:56:31;42.22;;;33.03;;
35418;SDS011;21525;41.240;16.500;2022-10-15T02:58:58;41.67;;;33.10;;
35418;SDS011;21525;41.240;16.500;2022-10-15T03:01:23;43.80;;;33.13;;
35418;SDS011;21525;41.240;16.500;2022-10-15T03:03:49;40.85;;;30.63;;
35418;SDS011;21525;41.240;16.500;2022-10-15T03:06:15;42.72;;;30.73;;
35418;SDS011;21525;41.240;16.500;2022-10-15T03:08:41;38.83;;;30.80;;
35418;SDS011;21525;41.240;16.500;2022-10-15T03:11:09;36.72;;;29.52;;
35418;SDS011;21525;41.240;16.500;2022-10-15T03:13:36;41.25;;;31.08;;
35418;SDS011;21525;41.240;16.500;2022-10-15T03:16:03;39.80;;;31.23;;
35418;SDS011;21525;41.240;16.500;2022-10-15T03:18:31;45.83;;;34.65;;
35418;SDS011;21525;41.240;16.500;2022-10-15T03:20:57;42.13;;;32.30;;
35418;SDS011;21525;41.240;16.500;2022-10-15T03:23:24;44.00;;;33.42;;
35418;SDS011;21525;41.240;16.500;2022-10-15T03:26:00;47.80;;;34.90;;
35418;SDS011;21525;41.240;16.500;2022-10-15T03:28:26;38.72;;;30.10;;
35418;SDS011;21525;41.240;16.500;2022-10-15T03:30:52;40.78;;;30.00;;
35418;SDS011;21525;41.240;16.500;2022-10-15T03:33:17;37.83;;;29.65;;
35418;SDS011;21525;41.240;16.500;2022-10-15T03:35:44;41.05;;;30.38;;
35418;SDS011;21525;41.240;16.500;2022-10-15T03:38:10;42.83;;;33.30;;
35418;SDS011;21525;41.240;16.500;2022-10-15T03:40:36;39.40;;;32.00;;
35418;SDS011;21525;41.240;16.500;2022-10-15T03:43:31;38.20;;;29.33;;
35418;SDS011;21525;41.240;16.500;2022-10-15T03:46:03;38.85;;;30.67;;
35418;SDS011;21525;41.240;16.500;2022-10-15T03:48:32;41.80;;;32.60;;
35418;SDS011;21525;41.240;16.500;2022-10-15T03:50:58;39.45;;;30.55;;
35418;SDS011;21525;41.240;16.500;2022-10-15T03:53:24;40.10;;;29.88;;
35418;SDS011;21525;41.240;16.500;2022-10-15T03:55:50;41.47;;;30.13;;
35418;SDS011;21525;41.240;16.500;2022-10-15T03:58:15;41.75;;;30.92;;
35418;SDS011;21525;41.240;16.500;2022-10-15T04:00:48;40.92;;;29.52;;
35418;SDS011;21525;41.240;16.500;2022-10-15T04:03:14;40.10;;;30.45;;
35418;SDS011;21525;41.240;16.500;2022-10-15T04:05:40;38.67;;;29.42;;
35418;SDS011;21525;41.240;16.500;2022-10-15T04:10:38;42.40;;;30.60;;
35418;SDS011;21525;41.240;16.500;2022-10-15T04:13:05;36.75;;;29.75;;
35418;SDS011;21525;41.240;16.500;2022-10-15T04:15:32;36.42;;;28.05;;
35418;SDS011;21525;41.240;16.500;2022-10-15T04:18:03;43.13;;;29.60;;
35418;SDS011;21525;41.240;16.500;2022-10-15T04:20:29;40.10;;;29.40;;
35418;SDS011;21525;41.240;16.500;2022-10-15T04:23:08;41.08;;;30.60;;
35418;SDS011;21525;41.240;16.500;2022-10-15T04:25:36;39.83;;;30.63;;
35418;SDS011;21525;41.240;16.500;2022-10-15T04:28:02;40.25;;;30.15;;
35418;SDS011;21525;41.240;16.500;2022-10-15T04:30:28;39.88;;;29.15;;
35418;SDS011;21525;41.240;16.500;2022-10-15T04:32:57;42.78;;;31.30;;
35418;SDS011;21525;41.240;16.500;2022-10-15T04:35:24;40.45;;;30.42;;
35418;SDS011;21525;41.240;16.500;2022-10-15T04:38:00;42.78;;;30.50;;
35418;SDS011;21525;41.240;16.500;2022-10-15T04:40:37;40.80;;;30.08;;
35418;SDS011;21525;41.240;16.500;2022-10-15T04:43:05;36.90;;;30.17;;
35418;SDS011;21525;41.240;16.500;2022-10-15T04:45:31;36.85;;;28.45;;
35418;SDS011;21525;41.240;16.500;2022-10-15T04:47:57;40.20;;;28.55;;
35418;SDS011;21525;41.240;16.500;2022-10-15T04:50:24;40.83;;;29.50;;
35418;SDS011;21525;41.240;16.500;2022-10-15T04:53:15;39.83;;;27.90;;
35418;SDS011;21525;41.240;16.500;2022-10-15T04:55:43;36.33;;;28.77;;
35418;SDS011;21525;41.240;16.500;2022-10-15T04:58:10;40.70;;;28.50;;
35418;SDS011;21525;41.240;16.500;2022-10-15T05:00:36;41.72;;;28.35;;
35418;SDS011;21525;41.240;16.500;2022-10-15T05:03:25;42.15;;;29.33;;
35418;SDS011;21525;41.240;16.500;2022-10-15T05:06:06;39.00;;;30.30;;
35418;SDS011;21525;41.240;16.500;2022-10-15T05:08:34;37.50;;;28.80;;
35418;SDS011;21525;41.240;16.500;2022-10-15T05:11:08;41.25;;;29.00;;
35418;SDS011;21525;41.240;16.500;2022-10-15T05:13:39;42.35;;;30.63;;
35418;SDS011;21525;41.240;16.500;2022-10-15T05:18:37;38.78;;;29.55;;
35418;SDS011;21525;41.240;16.500;2022-10-15T05:21:04;42.60;;;30.20;;
35418;SDS011;21525;41.240;16.500;2022-10-15T05:23:31;41.55;;;30.83;;
35418;SDS011;21525;41.240;16.500;2022-10-15T05:26:15;43.63;;;30.17;;
35418;SDS011;21525;41.240;16.500;2022-10-15T05:31:11;38.65;;;29.60;;
35418;SDS011;21525;41.240;16.500;2022-10-15T05:33:38;41.33;;;30.77;;
35418;SDS011;21525;41.240;16.500;2022-10-15T05:38:50;41.42;;;31.00;;
35418;SDS011;21525;41.240;16.500;2022-10-15T05:41:18;42.30;;;29.27;;
35418;SDS011;21525;41.240;16.500;2022-10-15T05:43:50;38.70;;;30.10;;
35418;SDS011;21525;41.240;16.500;2022-10-15T05:46:23;40.22;;;29.35;;
35418;SDS011;21525;41.240;16.500;2022-10-15T05:48:49;44.00;;;30.85;;
35418;SDS011;21525;41.240;16.500;2022-10-15T05:51:16;37.50;;;29.33;;
35418;SDS011;21525;41.240;16.500;2022-10-15T05:53:42;39.40;;;29.63;;
35418;SDS011;21525;41.240;16.500;2022-10-15T05:56:12;42.13;;;29.63;;
35418;SDS011;21525;41.240;16.500;2022-10-15T05:58:39;38.85;;;29.33;;
35418;SDS011;21525;41.240;16.500;2022-10-15T06:01:06;36.88;;;27.85;;
35418;SDS011;21525;41.240;16.500;2022-10-15T06:03:37;39.80;;;27.65;;
35418;SDS011;21525;41.240;16.500;2022-10-15T06:06:04;37.03;;;28.92;;
35418;SDS011;21525;41.240;16.500;2022-10-15T06:08:38;33.50;;;27.15;;
35418;SDS011;21525;41.240;16.500;2022-10-15T06:11:04;36.75;;;27.00;;
35418;SDS011;21525;41.240;16.500;2022-10-15T06:13:29;35.20;;;26.90;;
35418;SDS011;21525;41.240;16.500;2022-10-15T06:15:55;37.85;;;27.95;;
35418;SDS011;21525;41.240;16.500;2022-10-15T06:18:21;31.27;;;26.48;;
35418;SDS011;21525;41.240;16.500;2022-10-15T06:20:52;38.70;;;27.67;;
35418;SDS011;21525;41.240;16.500;2022-10-15T06:23:18;32.78;;;26.65;;
35418;SDS011;21525;41.240;16.500;2022-10-15T06:25:45;35.40;;;27.65;;
35418;SDS011;21525;41.240;16.500;2022-10-15T06:28:11;33.22;;;27.42;;
35418;SDS011;21525;41.240;16.500;2022-10-15T06:30:40;35.95;;;28.77;;
35418;SDS011;21525;41.240;16.500;2022-10-15T06:33:06;30.08;;;26.85;;
35418;SDS011;21525;41.240;16.500;2022-10-15T06:35:32;30.45;;;26.05;;
35418;SDS011;21525;41.240;16.500;2022-10-15T06:38:00;33.33;;;26.13;;
35418;SDS011;21525;41.240;16.500;2022-10-15T06:40:29;32.33;;;27.50;;
35418;SDS011;21525;41.240;16.500;2022-10-15T06:43:03;32.60;;;27.73;;
35418;SDS011;21525;41.240;16.500;2022-10-15T06:45:30;31.08;;;27.52;;
35418;SDS011;21525;41.240;16.500;2022-10-15T06:47:56;35.60;;;29.08;;
35418;SDS011;21525;41.240;16.500;2022-10-15T06:50:22;36.53;;;29.08;;
35418;SDS011;21525;41.240;16.500;2022-10-15T06:52:47;33.10;;;29.42;;
35418;SDS011;21525;41.240;16.500;2022-10-15T06:55:13;35.97;;;31.35;;
35418;SDS011;21525;41.240;16.500;2022-10-15T06:57:39;37.50;;;32.03;;
35418;SDS011;21525;41.240;16.500;2022-10-15T07:00:05;34.17;;;30.58;;
35418;SDS011;21525;41.240;16.500;2022-10-15T07:02:33;32.28;;;28.98;;
35418;SDS011;21525;41.240;16.500;2022-10-15T07:05:00;37.67;;;31.23;;
35418;SDS011;21525;41.240;16.500;2022-10-15T07:07:26;39.03;;;33.13;;
35418;SDS011;21525;41.240;16.500;2022-10-15T07:09:52;37.25;;;33.25;;
35418;SDS011;21525;41.240;16.500;2022-10-15T07:12:19;37.80;;;33.90;;
35418;SDS011;21525;41.240;16.500;2022-10-15T07:14:47;38.90;;;33.85;;
35418;SDS011;21525;41.240;16.500;2022-10-15T07:17:14;35.70;;;31.92;;
35418;SDS011;21525;41.240;16.500;2022-10-15T07:19:40;38.33;;;31.00;;
35418;SDS011;21525;41.240;16.500;2022-10-15T07:22:06;33.17;;;29.67;;
35418;SDS011;21525;41.240;16.500;2022-10-15T07:24:32;32.42;;;29.02;;
35418;SDS011;21525;41.240;16.500;2022-10-15T07:26:58;31.45;;;28.38;;
35418;SDS011;21525;41.240;16.500;2022-10-15T07:29:23;34.75;;;31.02;;
35418;SDS011;21525;41.240;16.500;2022-10-15T07:31:49;33.00;;;29.55;;
35418;SDS011;21525;41.240;16.500;2022-10-15T07:34:17;33.00;;;29.63;;
35418;SDS011;21525;41.240;16.500;2022-10-15T07:36:43;35.15;;;31.38;;
35418;SDS011;21525;41.240;16.500;2022-10-15T07:39:09;37.20;;;32.25;;
35418;SDS011;21525;41.240;16.500;2022-10-15T07:41:35;35.35;;;31.67;;
35418;SDS011;21525;41.240;16.500;2022-10-15T07:44:00;37.08;;;30.48;;
35418;SDS011;21525;41.240;16.500;2022-10-15T07:46:26;34.47;;;30.27;;
35418;SDS011;21525;41.240;16.500;2022-10-15T07:48:54;32.70;;;29.27;;
35418;SDS011;21525;41.240;16.500;2022-10-15T07:51:19;33.78;;;30.40;;
35418;SDS011;21525;41.240;16.500;2022-10-15T07:53:45;30.98;;;27.52;;
35418;SDS011;21525;41.240;16.500;2022-10-15T07:56:12;31.45;;;27.77;;
35418;SDS011;21525;41.240;16.500;2022-10-15T07:58:39;36.13;;;31.13;;
35418;SDS011;21525;41.240;16.500;2022-10-15T08:01:06;34.30;;;30.63;;
35418;SDS011;21525;41.240;16.500;2022-10-15T08:03:33;33.85;;;30.25;;
35418;SDS011;21525;41.240;16.500;2022-10-15T08:06:03;36.63;;;30.65;;
35418;SDS011;21525;41.240;16.500;2022-10-15T08:08:32;41.70;;;29.88;;
35418;SDS011;21525;41.240;16.500;2022-10-15T08:11:02;29.67;;;26.13;;
35418;SDS011;21525;41.240;16.500;2022-10-15T08:13:32;32.92;;;26.90;;
35418;SDS011;21525;41.240;16.500;2022-10-15T08:15:58;32.25;;;26.52;;
35418;SDS011;21525;41.240;16.500;2022-10-15T08:18:24;31.63;;;26.20;;
35418;SDS011;21525;41.240;16.500;2022-10-15T08:20:51;35.28;;;26.38;;
35418;SDS011;21525;41.240;16.500;2022-10-15T08:23:17;30.40;;;26.20;;
35418;SDS011;21525;41.240;16.500;2022-10-15T08:25:43;31.02;;;25.88;;
35418;SDS011;21525;41.240;16.500;2022-10-15T08:28:11;31.13;;;24.58;;
35418;SDS011;21525;41.240;16.500;2022-10-15T08:30:37;32.35;;;26.20;;
35418;SDS011;21525;41.240;16.500;2022-10-15T08:33:09;33.28;;;27.35;;
35418;SDS011;21525;41.240;16.500;2022-10-15T08:35:34;35.63;;;28.98;;
35418;SDS011;21525;41.240;16.500;2022-10-15T08:40:31;29.27;;;26.20;;
35418;SDS011;21525;41.240;16.500;2022-10-15T08:42:59;33.30;;;25.65;;
35418;SDS011;21525;41.240;16.500;2022-10-15T08:45:29;32.08;;;25.20;;
35418;SDS011;21525;41.240;16.500;2022-10-15T08:48:01;28.48;;;25.13;;
35418;SDS011;21525;41.240;16.500;2022-10-15T08:53:18;29.95;;;24.23;;
35418;SDS011;21525;41.240;16.500;2022-10-15T08:55:48;26.50;;;22.67;;
35418;SDS011;21525;41.240;16.500;2022-10-15T08:58:16;30.42;;;24.33;;
35418;SDS011;21525;41.240;16.500;2022-10-15T09:00:51;28.08;;;24.55;;
35418;SDS011;21525;41.240;16.500;2022-10-15T09:03:37;27.02;;;23.30;;
35418;SDS011;21525;41.240;16.500;2022-10-15T09:06:11;31.70;;;25.42;;
35418;SDS011;21525;41.240;16.500;2022-10-15T09:09:01;30.40;;;25.65;;
35418;SDS011;21525;41.240;16.500;2022-10-15T09:15:04;32.85;;;24.30;;
35418;SDS011;21525;41.240;16.500;2022-10-15T09:17:37;31.10;;;25.60;;
35418;SDS011;21525;41.240;16.500;2022-10-15T09:20:05;29.88;;;25.55;;
35418;SDS011;21525;41.240;16.500;2022-10-15T09:22:38;30.50;;;26.67;;
35418;SDS011;21525;41.240;16.500;2022-10-15T09:25:14;28.77;;;25.00;;
35418;SDS011;21525;41.240;16.500;2022-10-15T09:27:42;31.58;;;27.13;;
35418;SDS011;21525;41.240;16.500;2022-10-15T09:30:17;27.27;;;24.33;;
35418;SDS011;21525;41.240;16.500;2022-10-15T09:33:32;27.92;;;24.20;;
35418;SDS011;21525;41.240;16.500;2022-10-15T09:35:42;29.42;;;24.92;;
35418;SDS011;21525;41.240;16.500;2022-10-15T09:44:31;28.67;;;24.70;;
35418;SDS011;21525;41.240;16.500;2022-10-15T09:47:06;31.48;;;25.25;;
35418;SDS011;21525;41.240;16.500;2022-10-15T09:49:46;28.73;;;24.00;;
35418;SDS011;21525;41.240;16.500;2022-10-15T09:55:07;31.48;;;25.52;;
35418;SDS011;21525;41.240;16.500;2022-10-15T09:57:52;29.40;;;24.75;;
35418;SDS011;21525;41.240;16.500;2022-10-15T10:00:21;32.45;;;25.92;;
35418;SDS011;21525;41.240;16.500;2022-10-15T10:03:03;34.55;;;26.20;;
35418;SDS011;21525;41.240;16.500;2022-10-15T10:05:32;32.50;;;26.25;;
35418;SDS011;21525;41.240;16.500;2022-10-15T10:09:01;30.23;;;25.10;;
35418;SDS011;21525;41.240;16.500;2022-10-15T10:11:17;36.00;;;27.25;;
35418;SDS011;21525;41.240;16.500;2022-10-15T10:13:45;34.03;;;28.08;;
35418;SDS011;21525;41.240;16.500;2022-10-15T10:16:24;30.15;;;24.85;;
35418;SDS011;21525;41.240;16.500;2022-10-15T10:21:37;33.72;;;26.52;;
35418;SDS011;21525;41.240;16.500;2022-10-15T10:26:52;36.15;;;25.80;;
35418;SDS011;21525;41.240;16.500;2022-10-15T10:29:19;30.00;;;26.45;;
35418;SDS011;21525;41.240;16.500;2022-10-15T10:31:47;32.65;;;27.05;;
35418;SDS011;21525;41.240;16.500;2022-10-15T10:34:28;32.45;;;26.35;;
35418;SDS011;21525;41.240;16.500;2022-10-15T10:36:57;29.25;;;24.88;;
35418;SDS011;21525;41.240;16.500;2022-10-15T10:39:28;33.88;;;26.73;;
35418;SDS011;21525;41.240;16.500;2022-10-15T10:41:56;34.30;;;26.80;;
35418;SDS011;21525;41.240;16.500;2022-10-15T10:44:29;31.10;;;25.95;;
35418;SDS011;21525;41.240;16.500;2022-10-15T10:49:46;30.08;;;24.80;;
35418;SDS011;21525;41.240;16.500;2022-10-15T10:52:48;31.15;;;25.70;;
35418;SDS011;21525;41.240;16.500;2022-10-15T11:02:50;31.95;;;26.05;;
35418;SDS011;21525;41.240;16.500;2022-10-15T11:05:26;29.38;;;25.10;;
35418;SDS011;21525;41.240;16.500;2022-10-15T11:10:56;32.78;;;26.10;;
35418;SDS011;21525;41.240;16.500;2022-10-15T11:13:41;30.60;;;25.70;;
35418;SDS011;21525;41.240;16.500;2022-10-15T11:19:07;29.58;;;24.98;;
35418;SDS011;21525;41.240;16.500;2022-10-15T11:24:43;30.30;;;27.08;;
35418;SDS011;21525;41.240;16.500;2022-10-15T11:38:58;33.42;;;25.67;;
35418;SDS011;21525;41.240;16.500;2022-10-15T11:44:50;29.70;;;24.88;;
35418;SDS011;21525;41.240;16.500;2022-10-15T11:50:48;29.00;;;25.10;;
35418;SDS011;21525;41.240;16.500;2022-10-15T11:53:29;30.35;;;25.88;;
35418;SDS011;21525;41.240;16.500;2022-10-15T11:56:21;31.95;;;25.45;;
35418;SDS011;21525;41.240;16.500;2022-10-15T12:01:47;32.65;;;26.50;;
35418;SDS011;21525;41.240;16.500;2022-10-15T12:07:03;28.67;;;24.23;;
35418;SDS011;21525;41.240;16.500;2022-10-15T12:09:35;30.77;;;25.67;;
35418;SDS011;21525;41.240;16.500;2022-10-15T12:12:29;32.78;;;26.80;;
35418;SDS011;21525;41.240;16.500;2022-10-15T12:20:16;30.50;;;25.45;;
35418;SDS011;21525;41.240;16.500;2022-10-15T12:25:53;33.03;;;25.60;;
35418;SDS011;21525;41.240;16.500;2022-10-15T12:30:26;30.38;;;25.75;;
35418;SDS011;21525;41.240;16.500;2022-10-15T12:32:55;30.00;;;24.30;;
35418;SDS011;21525;41.240;16.500;2022-10-15T12:35:22;30.77;;;26.25;;
35418;SDS011;21525;41.240;16.500;2022-10-15T12:37:54;33.50;;;26.27;;
35418;SDS011;21525;41.240;16.500;2022-10-15T12:40:32;31.02;;;25.48;;
35418;SDS011;21525;41.240;16.500;2022-10-15T12:43:01;30.73;;;25.58;;
35418;SDS011;21525;41.240;16.500;2022-10-15T12:45:38;32.53;;;26.48;;
35418;SDS011;21525;41.240;16.500;2022-10-15T12:50:44;29.75;;;25.88;;
35418;SDS011;21525;41.240;16.500;2022-10-15T13:01:05;32.63;;;26.55;;
35418;SDS011;21525;41.240;16.500;2022-10-15T13:03:55;28.33;;;25.17;;
35418;SDS011;21525;41.240;16.500;2022-10-15T13:14:30;31.15;;;25.83;;
35418;SDS011;21525;41.240;16.500;2022-10-15T13:16:57;31.60;;;25.10;;
35418;SDS011;21525;41.240;16.500;2022-10-15T13:21:59;30.42;;;26.70;;
35418;SDS011;21525;41.240;16.500;2022-10-15T13:24:28;29.85;;;25.45;;
35418;SDS011;21525;41.240;16.500;2022-10-15T13:27:02;36.72;;;28.67;;
35418;SDS011;21525;41.240;16.500;2022-10-15T13:29:51;29.90;;;25.35;;
35418;SDS011;21525;41.240;16.500;2022-10-15T13:32:19;32.53;;;26.75;;
35418;SDS011;21525;41.240;16.500;2022-10-15T13:34:46;31.55;;;26.05;;
35418;SDS011;21525;41.240;16.500;2022-10-15T13:37:15;33.70;;;28.05;;
35418;SDS011;21525;41.240;16.500;2022-10-15T13:39:44;34.95;;;27.70;;
35418;SDS011;21525;41.240;16.500;2022-10-15T13:42:14;33.95;;;28.77;;
35418;SDS011;21525;41.240;16.500;2022-10-15T13:44:40;32.58;;;28.10;;
35418;SDS011;21525;41.240;16.500;2022-10-15T13:47:18;34.95;;;29.33;;
35418;SDS011;21525;41.240;16.500;2022-10-15T13:52:40;31.13;;;25.80;;
35418;SDS011;21525;41.240;16.500;2022-10-15T13:55:11;32.80;;;28.95;;
35418;SDS011;21525;41.240;16.500;2022-10-15T13:57:46;30.35;;;26.98;;
35418;SDS011;21525;41.240;16.500;2022-10-15T14:00:47;31.13;;;27.55;;
35418;SDS011;21525;41.240;16.500;2022-10-15T14:03:12;33.22;;;28.55;;
35418;SDS011;21525;41.240;16.500;2022-10-15T14:05:42;35.65;;;27.50;;
35418;SDS011;21525;41.240;16.500;2022-10-15T14:08:13;31.05;;;26.73;;
35418;SDS011;21525;41.240;16.500;2022-10-15T14:10:44;32.13;;;26.77;;
35418;SDS011;21525;41.240;16.500;2022-10-15T14:13:11;32.95;;;29.27;;
35418;SDS011;21525;41.240;16.500;2022-10-15T14:15:41;33.42;;;29.80;;
35418;SDS011;21525;41.240;16.500;2022-10-15T14:18:34;34.17;;;28.20;;
35418;SDS011;21525;41.240;16.500;2022-10-15T14:21:02;32.42;;;28.20;;
35418;SDS011;21525;41.240;16.500;2022-10-15T14:23:34;33.95;;;29.30;;
35418;SDS011;21525;41.240;16.500;2022-10-15T14:26:01;34.17;;;30.52;;
35418;SDS011;21525;41.240;16.500;2022-10-15T14:28:28;33.25;;;28.08;;
35418;SDS011;21525;41.240;16.500;2022-10-15T14:30:57;33.15;;;27.33;;
35418;SDS011;21525;41.240;16.500;2022-10-15T14:33:33;34.17;;;27.70;;
35418;SDS011;21525;41.240;16.500;2022-10-15T14:36:07;34.13;;;27.08;;
35418;SDS011;21525;41.240;16.500;2022-10-15T14:38:38;32.75;;;27.45;;
35418;SDS011;21525;41.240;16.500;2022-10-15T14:41:26;35.40;;;27.52;;
35418;SDS011;21525;41.240;16.500;2022-10-15T14:44:00;33.08;;;28.98;;
35418;SDS011;21525;41.240;16.500;2022-10-15T14:46:28;34.70;;;28.55;;
35418;SDS011;21525;41.240;16.500;2022-10-15T14:49:01;34.30;;;27.90;;
35418;SDS011;21525;41.240;16.500;2022-10-15T14:51:28;31.50;;;27.55;;
35418;SDS011;21525;41.240;16.500;2022-10-15T14:53:54;35.47;;;29.58;;
35418;SDS011;21525;41.240;16.500;2022-10-15T14:56:24;36.13;;;30.33;;
35418;SDS011;21525;41.240;16.500;2022-10-15T14:58:56;32.13;;;28.63;;
35418;SDS011;21525;41.240;16.500;2022-10-15T15:01:23;32.15;;;28.25;;
35418;SDS011;21525;41.240;16.500;2022-10-15T15:03:52;37.10;;;30.70;;
35418;SDS011;21525;41.240;16.500;2022-10-15T15:06:20;35.40;;;28.42;;
35418;SDS011;21525;41.240;16.500;2022-10-15T15:08:46;39.70;;;28.83;;
35418;SDS011;21525;41.240;16.500;2022-10-15T15:11:13;35.95;;;29.85;;
35418;SDS011;21525;41.240;16.500;2022-10-15T15:13:42;34.35;;;29.88;;
35418;SDS011;21525;41.240;16.500;2022-10-15T15:16:14;34.53;;;29.10;;
35418;SDS011;21525;41.240;16.500;2022-10-15T15:18:41;37.47;;;31.73;;
35418;SDS011;21525;41.240;16.500;2022-10-15T15:21:09;39.28;;;31.67;;
35418;SDS011;21525;41.240;16.500;2022-10-15T15:23:39;38.30;;;31.05;;
35418;SDS011;21525;41.240;16.500;2022-10-15T15:26:06;34.22;;;28.63;;
35418;SDS011;21525;41.240;16.500;2022-10-15T15:28:31;40.38;;;30.90;;
35418;SDS011;21525;41.240;16.500;2022-10-15T15:30:58;37.78;;;31.40;;
35418;SDS011;21525;41.240;16.500;2022-10-15T15:33:27;34.78;;;29.25;;
35418;SDS011;21525;41.240;16.500;2022-10-15T15:36:01;37.17;;;30.10;;
35418;SDS011;21525;41.240;16.500;2022-10-15T15:38:31;34.88;;;29.83;;
35418;SDS011;21525;41.240;16.500;2022-10-15T15:43:47;37.30;;;30.58;;
35418;SDS011;21525;41.240;16.500;2022-10-15T15:46:13;37.03;;;32.50;;
35418;SDS011;21525;41.240;16.500;2022-10-15T15:48:39;36.85;;;31.60;;
35418;SDS011;21525;41.240;16.500;2022-10-15T15:51:16;40.25;;;33.17;;
35418;SDS011;21525;41.240;16.500;2022-10-15T15:53:45;40.97;;;31.95;;
35418;SDS011;21525;41.240;16.500;2022-10-15T15:56:12;39.13;;;33.35;;
35418;SDS011;21525;41.240;16.500;2022-10-15T15:58:38;37.75;;;31.27;;
35418;SDS011;21525;41.240;16.500;2022-10-15T16:01:03;40.85;;;33.95;;
35418;SDS011;21525;41.240;16.500;2022-10-15T16:03:29;40.03;;;32.78;;
35418;SDS011;21525;41.240;16.500;2022-10-15T16:05:55;37.35;;;31.05;;
35418;SDS011;21525;41.240;16.500;2022-10-15T16:08:21;42.15;;;33.10;;
35418;SDS011;21525;41.240;16.500;2022-10-15T16:10:47;41.30;;;31.90;;
35418;SDS011;21525;41.240;16.500;2022-10-15T16:13:13;41.35;;;33.97;;
35418;SDS011;21525;41.240;16.500;2022-10-15T16:15:38;39.53;;;33.17;;
35418;SDS011;21525;41.240;16.500;2022-10-15T16:18:04;44.85;;;36.25;;
35418;SDS011;21525;41.240;16.500;2022-10-15T16:20:30;42.25;;;34.17;;
35418;SDS011;21525;41.240;16.500;2022-10-15T16:22:56;41.25;;;34.50;;
35418;SDS011;21525;41.240;16.500;2022-10-15T16:25:22;44.17;;;33.25;;
35418;SDS011;21525;41.240;16.500;2022-10-15T16:27:47;37.92;;;33.05;;
35418;SDS011;21525;41.240;16.500;2022-10-15T16:30:14;41.15;;;34.63;;
35418;SDS011;21525;41.240;16.500;2022-10-15T16:32:40;43.83;;;34.95;;
35418;SDS011;21525;41.240;16.500;2022-10-15T16:35:06;42.67;;;35.15;;
35418;SDS011;21525;41.240;16.500;2022-10-15T16:37:32;44.88;;;35.97;;
35418;SDS011;21525;41.240;16.500;2022-10-15T16:39:58;46.63;;;36.03;;
35418;SDS011;21525;41.240;16.500;2022-10-15T16:42:24;47.72;;;36.05;;
35418;SDS011;21525;41.240;16.500;2022-10-15T16:44:49;47.50;;;37.70;;
35418;SDS011;21525;41.240;16.500;2022-10-15T16:47:17;43.00;;;34.85;;